createdAt,value
2019-02-05T00:00:26.584Z,24.90
2019-02-05T00:02:55.545Z,25.60
2019-02-05T00:05:24.112Z,25.70
2019-02-05T00:07:52.654Z,24.90
2019-02-05T00:10:21.158Z,24.40
2019-02-05T00:12:49.713Z,23.90
2019-02-05T00:15:18.434Z,24.40
2019-02-05T00:17:47.381Z,24.00
2019-02-05T00:20:15.941Z,24.90
2019-02-05T00:22:44.547Z,24.10
2019-02-05T00:25:13.196Z,24.40
2019-02-05T00:27:41.775Z,25.00
2019-02-05T00:30:13.405Z,25.10
2019-02-05T00:32:42.452Z,25.80
2019-02-05T00:35:11.039Z,25.10
2019-02-05T00:37:40.355Z,25.00
2019-02-05T00:40:10.932Z,25.70
2019-02-05T00:42:39.495Z,26.20
2019-02-05T00:45:12.197Z,27.10
2019-02-05T00:47:41.266Z,26.30
2019-02-05T00:50:17.353Z,25.80
2019-02-05T00:52:45.916Z,25.50
2019-02-05T00:55:17.020Z,25.20
2019-02-05T00:57:45.630Z,24.60
2019-02-05T01:00:20.073Z,24.30
2019-02-05T01:02:49.659Z,24.10
2019-02-05T01:05:18.245Z,24.80
2019-02-05T01:07:46.876Z,25.10
2019-02-05T01:10:15.500Z,24.40
2019-02-05T01:12:44.133Z,25.30
2019-02-05T01:15:20.395Z,24.70
2019-02-05T01:17:48.965Z,25.00
2019-02-05T01:20:21.385Z,24.90
2019-02-05T01:22:49.924Z,24.70
2019-02-05T01:25:19.508Z,24.00
2019-02-05T01:27:48.407Z,23.80
2019-02-05T01:30:25.143Z,24.50
2019-02-05T01:32:53.786Z,24.50
2019-02-05T01:35:22.408Z,24.30
2019-02-05T01:37:51.000Z,24.20
2019-02-05T01:40:26.802Z,23.70
2019-02-05T01:42:55.479Z,24.10
2019-02-05T01:45:25.493Z,24.60
2019-02-05T01:47:54.190Z,24.40
2019-02-05T01:50:26.681Z,23.70
2019-02-05T01:52:55.261Z,23.60
2019-02-05T01:55:24.070Z,23.70
2019-02-05T01:57:52.674Z,23.30
2019-02-05T02:00:32.141Z,23.60
2019-02-05T02:03:00.853Z,23.20
2019-02-05T02:05:29.516Z,23.20
2019-02-05T02:07:58.479Z,22.80
2019-02-05T02:10:28.898Z,22.60
2019-02-05T02:12:57.580Z,22.20
2019-02-05T02:15:26.067Z,22.80
2019-02-05T02:17:54.677Z,22.60
2019-02-05T02:20:23.252Z,22.80
2019-02-05T02:22:51.817Z,22.90
2019-02-05T02:25:20.412Z,23.10
2019-02-05T02:27:49.863Z,23.00
2019-02-05T02:30:27.137Z,23.60
2019-02-05T02:32:55.627Z,24.60
2019-02-05T02:35:24.253Z,23.70
2019-02-05T02:37:53.253Z,24.60
2019-02-05T02:40:22.306Z,24.20
2019-02-05T02:42:50.894Z,24.20
2019-02-05T02:45:22.146Z,23.70
2019-02-05T02:47:50.698Z,25.00
2019-02-05T02:50:22.833Z,24.10
2019-02-05T02:52:51.677Z,24.30
2019-02-05T02:55:20.226Z,25.30
2019-02-05T02:57:48.850Z,25.70
2019-02-05T03:00:21.943Z,25.70
2019-02-05T03:02:51.894Z,25.90
2019-02-05T03:05:24.580Z,26.40
2019-02-05T03:07:53.132Z,26.80
2019-02-05T03:10:26.649Z,27.00
2019-02-05T03:12:55.560Z,27.60
2019-02-05T03:15:24.127Z,26.80
2019-02-05T03:17:52.773Z,25.50
2019-02-05T03:20:21.301Z,24.40
2019-02-05T03:23:09.791Z,25.20
2019-02-05T03:25:39.169Z,25.20
2019-02-05T03:28:07.743Z,24.20
2019-02-05T03:30:36.374Z,23.70
2019-02-05T03:33:04.900Z,22.90
2019-02-05T03:35:33.539Z,22.70
2019-02-05T03:38:02.171Z,23.80
2019-02-05T03:40:33.975Z,25.50
2019-02-05T03:43:02.614Z,26.00
2019-02-05T03:45:31.506Z,26.70
2019-02-05T03:48:03.328Z,26.30
2019-02-05T03:50:33.659Z,25.10
2019-02-05T03:53:17.627Z,24.20
2019-02-05T03:55:54.873Z,23.50
2019-02-05T03:58:41.631Z,23.80
2019-02-05T04:01:28.963Z,23.30
2019-02-05T04:04:15.420Z,23.30
2019-02-05T04:06:55.999Z,23.50
2019-02-05T04:09:48.463Z,23.70
2019-02-05T04:12:51.909Z,24.70
2019-02-05T04:15:48.085Z,24.60
2019-02-05T04:18:31.530Z,24.60
2019-02-05T04:21:03.222Z,24.50
2019-02-05T04:23:40.692Z,24.40
2019-02-05T04:26:19.267Z,23.70
2019-02-05T04:29:08.860Z,23.90
2019-02-05T04:31:40.660Z,23.80
2019-02-05T04:34:15.083Z,23.90
2019-02-05T04:37:07.016Z,23.80
2019-02-05T04:39:41.609Z,23.40
2019-02-05T04:42:28.120Z,23.20
2019-02-05T04:45:33.354Z,24.20
2019-02-05T04:48:20.044Z,24.90
2019-02-05T04:50:54.425Z,24.20
2019-02-05T04:53:29.105Z,23.70
2019-02-05T04:56:03.846Z,23.00
2019-02-05T04:58:54.192Z,22.50
2019-02-05T05:01:49.560Z,22.40
2019-02-05T05:04:30.874Z,22.70
2019-02-05T05:07:17.496Z,22.70
2019-02-05T05:09:54.545Z,22.90
2019-02-05T05:12:23.505Z,23.50
2019-02-05T05:14:52.174Z,23.80
2019-02-05T05:17:20.762Z,23.30
2019-02-05T05:19:49.323Z,23.20
2019-02-05T05:22:17.890Z,23.80
2019-02-05T05:24:46.580Z,24.40
2019-02-05T05:27:16.719Z,24.30
2019-02-05T05:29:45.486Z,24.00
2019-02-05T05:32:14.098Z,24.00
2019-02-05T05:34:42.667Z,25.10
2019-02-05T05:37:10.208Z,24.70
2019-02-05T05:39:38.887Z,23.80
2019-02-05T05:42:07.385Z,23.40
2019-02-05T05:44:35.953Z,23.00
2019-02-05T05:47:04.879Z,22.70
2019-02-05T05:49:33.379Z,22.20
2019-02-05T05:52:02.064Z,21.80
2019-02-05T05:54:30.993Z,21.70
2019-02-05T05:56:59.783Z,21.50
2019-02-05T05:59:28.309Z,21.20
2019-02-05T06:01:56.917Z,21.20
2019-02-05T06:04:26.030Z,21.50
2019-02-05T06:06:54.679Z,21.30
2019-02-05T06:09:23.287Z,22.00
2019-02-05T06:11:51.852Z,22.10
2019-02-05T06:14:20.419Z,23.40
2019-02-05T06:16:48.998Z,24.10
2019-02-05T06:19:18.060Z,23.90
2019-02-05T06:21:46.647Z,23.90
2019-02-05T06:24:15.243Z,24.00
2019-02-05T06:26:43.848Z,24.30
2019-02-05T06:29:13.290Z,24.00
2019-02-05T06:31:41.916Z,23.80
2019-02-05T06:34:10.408Z,24.20
2019-02-05T06:36:38.982Z,24.50
2019-02-05T06:39:08.183Z,24.20
2019-02-05T06:41:36.746Z,23.80
2019-02-05T06:44:05.240Z,24.50
2019-02-05T06:46:33.852Z,23.50
2019-02-05T06:49:02.407Z,23.40
2019-02-05T06:51:31.072Z,24.10
2019-02-05T06:54:00.376Z,24.10
2019-02-05T06:56:28.934Z,23.60
2019-02-05T06:58:57.500Z,23.00
2019-02-05T07:01:26.132Z,22.40
2019-02-05T07:03:54.666Z,24.40
2019-02-05T07:06:23.162Z,24.10
2019-02-05T07:08:51.687Z,24.10
2019-02-05T07:11:20.551Z,24.80
2019-02-05T07:13:49.517Z,24.40
2019-02-05T07:16:18.053Z,23.80
2019-02-05T07:18:47.118Z,23.50
2019-02-05T07:21:15.616Z,22.90
2019-02-05T07:23:44.197Z,23.30
2019-02-05T07:26:12.776Z,22.80
2019-02-05T07:28:41.578Z,22.60
2019-02-05T07:31:11.096Z,22.20
2019-02-05T07:33:39.704Z,22.40
2019-02-05T07:36:08.214Z,21.80
2019-02-05T07:38:36.742Z,21.90
2019-02-05T07:41:05.311Z,22.10
2019-02-05T07:43:33.931Z,22.00
2019-02-05T07:46:02.645Z,22.70
2019-02-05T07:48:31.475Z,22.50
2019-02-05T07:50:59.969Z,22.00
2019-02-05T07:53:28.638Z,22.20
2019-02-05T07:55:57.270Z,22.10
2019-02-05T07:58:25.847Z,21.90
2019-02-05T08:00:54.518Z,21.80
2019-02-05T08:03:23.142Z,21.40
2019-02-05T08:05:52.315Z,22.10
2019-02-05T08:08:21.095Z,21.70
2019-02-05T08:10:49.778Z,21.40
2019-02-05T08:13:18.421Z,21.40
2019-02-05T08:15:47.097Z,21.60
2019-02-05T08:18:15.757Z,21.40
2019-02-05T08:20:44.381Z,21.70
2019-02-05T08:23:13.067Z,21.30
2019-02-05T08:25:41.998Z,21.40
2019-02-05T08:28:10.662Z,21.60
2019-02-05T08:30:41.959Z,21.20
2019-02-05T08:33:11.485Z,21.00
2019-02-05T08:35:39.967Z,21.40
2019-02-05T08:38:08.589Z,21.20
2019-02-05T08:40:37.239Z,20.90
2019-02-05T08:43:06.959Z,20.80
2019-02-05T08:45:39.107Z,20.20
2019-02-05T08:48:09.998Z,20.00
2019-02-05T08:50:38.625Z,20.40
2019-02-05T08:53:07.237Z,20.60
2019-02-05T08:55:35.799Z,21.40
2019-02-05T08:58:07.047Z,21.40
2019-02-05T09:00:37.704Z,20.70
2019-02-05T09:03:07.582Z,20.30
2019-02-05T09:05:36.066Z,20.00
2019-02-05T09:08:04.686Z,19.80
2019-02-05T09:10:34.954Z,20.80
2019-02-05T09:13:03.589Z,20.30
2019-02-05T09:15:32.576Z,20.50
2019-02-05T09:18:01.508Z,20.20
2019-02-05T09:20:30.147Z,20.00
2019-02-05T09:22:59.114Z,19.30
2019-02-05T09:25:27.674Z,18.90
2019-02-05T09:27:56.319Z,18.80
2019-02-05T09:30:30.919Z,18.30
2019-02-05T09:33:01.680Z,18.30
2019-02-05T09:35:31.143Z,18.20
2019-02-05T09:37:59.816Z,18.40
2019-02-05T09:40:36.528Z,19.90
2019-02-05T09:43:05.141Z,19.40
2019-02-05T09:45:34.110Z,18.70
2019-02-05T09:48:02.669Z,17.60
2019-02-05T09:50:43.717Z,17.70
2019-02-05T09:53:01.421Z,19.20
2019-02-05T09:55:29.993Z,19.20
2019-02-05T09:57:58.679Z,19.00
2019-02-05T10:00:35.747Z,18.20
2019-02-05T10:03:06.386Z,19.10
2019-02-05T10:05:35.620Z,19.90
2019-02-05T10:08:04.386Z,19.60
2019-02-05T10:10:33.012Z,20.70
2019-02-05T10:13:01.583Z,20.00
2019-02-05T10:15:32.982Z,20.10
2019-02-05T10:18:01.992Z,21.10
2019-02-05T10:20:30.485Z,20.50
2019-02-05T10:23:00.718Z,19.60
2019-02-05T10:25:29.321Z,19.50
2019-02-05T10:27:57.961Z,19.80
2019-02-05T10:30:30.668Z,20.40
2019-02-05T10:33:00.288Z,20.30
2019-02-05T10:35:28.952Z,21.10
2019-02-05T10:37:57.968Z,20.70
2019-02-05T10:40:26.756Z,20.50
2019-02-05T10:42:55.625Z,21.90
2019-02-05T10:45:26.753Z,22.10
2019-02-05T10:47:55.408Z,21.60
2019-02-05T10:50:24.562Z,22.10
2019-02-05T10:52:53.902Z,22.90
2019-02-05T10:55:23.575Z,23.60
2019-02-05T10:57:55.960Z,23.50
2019-02-05T11:00:30.011Z,23.70
2019-02-05T11:03:00.463Z,23.10
2019-02-05T11:05:29.951Z,23.40
2019-02-05T11:07:58.559Z,24.00
2019-02-05T11:10:27.199Z,22.70
2019-02-05T11:12:55.750Z,22.90
2019-02-05T11:15:29.544Z,22.40
2019-02-05T11:17:58.131Z,22.20
2019-02-05T11:20:28.060Z,22.80
2019-02-05T11:22:57.031Z,23.20
2019-02-05T11:25:25.671Z,22.80
2019-02-05T11:27:54.314Z,22.60
2019-02-05T11:30:25.309Z,22.60
2019-02-05T11:32:53.867Z,22.80
2019-02-05T11:35:22.440Z,21.30
2019-02-05T11:37:51.429Z,20.70
2019-02-05T11:40:22.508Z,21.60
2019-02-05T11:42:51.199Z,22.80
2019-02-05T11:45:20.263Z,23.40
2019-02-05T11:47:49.104Z,24.50
2019-02-05T11:50:18.080Z,25.30
2019-02-05T11:52:46.767Z,25.50
2019-02-05T11:55:18.097Z,25.80
2019-02-05T11:57:46.738Z,25.10
2019-02-05T12:00:39.886Z,24.30
2019-02-05T12:03:09.720Z,24.00
2019-02-05T12:05:38.666Z,24.00
2019-02-05T12:08:07.339Z,25.30
2019-02-05T12:10:35.894Z,26.00
2019-02-05T12:13:04.535Z,26.80
2019-02-05T12:15:33.228Z,25.50
2019-02-05T12:18:02.351Z,25.00
2019-02-05T12:20:30.973Z,25.20
2019-02-05T12:23:00.052Z,26.70
2019-02-05T12:25:28.689Z,50.00
2019-02-05T12:27:57.324Z,37.10
2019-02-05T12:30:31.259Z,27.40
2019-02-05T12:35:29.820Z,37.40
2019-02-05T12:37:58.451Z,37.60
2019-02-05T12:40:27.047Z,34.00
2019-02-05T12:45:27.162Z,36.40
2019-02-05T12:52:53.452Z,30.00
2019-02-05T12:55:22.394Z,30.00
2019-02-05T12:57:50.968Z,30.60
2019-02-05T13:00:25.400Z,30.60
2019-02-05T13:02:54.704Z,33.10
2019-02-05T13:05:23.496Z,32.70
2019-02-05T13:10:29.451Z,33.10
2019-02-05T13:15:26.409Z,35.00
2019-02-05T13:20:25.633Z,39.10
2019-02-05T13:22:55.202Z,39.00
2019-02-05T13:25:25.741Z,39.40
2019-02-05T13:27:54.353Z,38.40
2019-02-05T13:40:27.967Z,36.30
2019-02-05T13:42:56.655Z,29.40
2019-02-05T13:45:27.951Z,31.40
2019-02-05T13:55:25.993Z,29.50
2019-02-05T14:00:31.531Z,40.00
2019-02-05T14:03:00.264Z,34.50
2019-02-05T14:05:29.441Z,34.90
2019-02-05T14:07:59.597Z,33.40
2019-02-05T14:10:30.996Z,36.90
2019-02-05T14:12:59.840Z,47.80
2019-02-05T14:18:00.952Z,29.50
2019-02-05T14:20:29.500Z,28.80
2019-02-05T14:25:26.458Z,30.10
2019-02-05T14:27:55.027Z,29.60
2019-02-05T14:30:26.769Z,29.80
2019-02-05T14:35:23.989Z,28.80
2019-02-05T14:37:52.716Z,28.70
2019-02-05T14:40:24.938Z,28.90
2019-02-05T14:42:53.626Z,28.30
2019-02-05T14:45:22.162Z,27.30
2019-02-05T14:47:50.806Z,29.00
2019-02-05T14:50:22.305Z,29.90
2019-02-05T14:52:50.905Z,29.80
2019-02-05T14:55:19.500Z,29.60
2019-02-05T14:57:48.063Z,30.00
2019-02-05T15:00:19.817Z,32.40
2019-02-05T15:02:48.462Z,33.50
2019-02-05T15:05:16.944Z,32.20
2019-02-05T15:07:45.558Z,33.50
2019-02-05T15:10:16.411Z,31.20
2019-02-05T15:12:45.043Z,31.20
2019-02-05T15:20:18.445Z,33.10
2019-02-05T15:22:47.137Z,31.70
2019-02-05T15:27:44.516Z,29.70
2019-02-05T15:30:16.899Z,29.20
2019-02-05T15:32:59.496Z,29.90
2019-02-05T15:35:28.275Z,31.20
2019-02-05T15:37:56.940Z,32.80
2019-02-05T15:42:54.024Z,42.30
2019-02-05T15:50:20.180Z,35.30
2019-02-05T15:52:48.696Z,38.40
2019-02-05T15:55:17.245Z,35.10
2019-02-05T15:57:46.023Z,36.80
2019-02-05T16:00:20.509Z,37.50
2019-02-05T16:07:45.566Z,40.30
2019-02-05T16:10:22.594Z,37.40
2019-02-05T16:12:51.230Z,39.00
2019-02-05T16:15:20.443Z,40.40
2019-02-05T16:17:49.076Z,38.80
2019-02-05T16:25:15.411Z,39.00
2019-02-05T16:27:44.046Z,40.40
2019-02-05T16:30:15.769Z,34.90
2019-02-05T16:32:44.466Z,31.00
2019-02-05T16:35:13.108Z,33.60
2019-02-05T16:37:41.681Z,33.30
2019-02-05T16:40:33.635Z,38.20
2019-02-05T16:43:02.280Z,40.90
2019-02-05T16:45:31.936Z,36.00
2019-02-05T16:48:00.730Z,36.60
2019-02-05T16:53:01.833Z,28.70
2019-02-05T16:55:30.835Z,33.70
2019-02-05T17:02:57.066Z,33.20
2019-02-05T17:07:54.478Z,39.10
2019-02-05T17:10:24.308Z,37.60
2019-02-05T17:12:52.987Z,35.40
2019-02-05T17:15:21.560Z,34.20
2019-02-05T17:20:27.186Z,33.60
2019-02-05T17:22:55.804Z,34.20
2019-02-05T17:25:27.135Z,35.30
2019-02-05T17:27:59.840Z,35.00
2019-02-05T17:30:38.233Z,35.00
2019-02-05T17:33:06.915Z,35.80
2019-02-05T17:38:06.934Z,37.00
2019-02-05T17:40:35.615Z,36.80
2019-02-05T17:43:04.759Z,30.30
2019-02-05T17:48:05.113Z,38.50
2019-02-05T17:50:33.766Z,39.20
2019-02-05T17:55:32.767Z,35.10
2019-02-05T17:58:01.804Z,38.50
2019-02-05T18:00:38.330Z,41.10
2019-02-05T18:05:37.975Z,30.00
2019-02-05T18:08:06.605Z,28.90
2019-02-05T18:10:37.956Z,28.70
2019-02-05T18:15:37.263Z,29.00
2019-02-05T18:18:06.708Z,29.90
2019-02-05T18:20:35.786Z,30.00
2019-02-05T18:23:04.349Z,29.80
2019-02-05T18:25:35.579Z,29.50
2019-02-05T18:28:04.221Z,28.40
2019-02-05T18:30:37.294Z,28.00
2019-02-05T18:33:06.719Z,28.40
2019-02-05T18:35:35.355Z,28.10
2019-02-05T18:38:11.226Z,27.90
2019-02-05T18:40:39.821Z,27.50
2019-02-05T18:43:10.028Z,27.80
2019-02-05T18:45:38.724Z,28.70
2019-02-05T18:48:07.683Z,28.80
2019-02-05T18:50:37.775Z,29.00
2019-02-05T18:53:06.385Z,28.80
2019-02-05T18:55:37.748Z,29.80
2019-02-05T18:58:09.464Z,29.90
2019-02-05T19:00:44.671Z,30.20
2019-02-05T19:03:15.846Z,28.60
2019-02-05T19:05:43.722Z,29.90
2019-02-05T19:08:12.328Z,29.50
2019-02-05T19:10:42.093Z,29.20
2019-02-05T19:13:17.069Z,28.10
2019-02-05T19:15:46.027Z,27.90
2019-02-05T19:18:15.645Z,27.90
2019-02-05T19:20:47.386Z,29.10
2019-02-05T19:23:16.390Z,28.40
2019-02-05T19:25:46.609Z,26.40
2019-02-05T19:28:19.259Z,26.40
2019-02-05T19:30:54.902Z,27.10
2019-02-05T19:33:27.379Z,27.60
2019-02-05T19:35:53.943Z,27.50
2019-02-05T19:38:23.991Z,27.80
2019-02-05T19:40:57.655Z,28.50
2019-02-05T19:43:23.589Z,29.50
2019-02-05T19:45:56.925Z,29.10
2019-02-05T19:48:30.173Z,30.00
2019-02-05T19:51:00.340Z,30.10
2019-02-05T19:53:30.559Z,29.80
2019-02-05T19:55:59.403Z,29.50
2019-02-05T19:58:28.036Z,28.70
2019-02-05T20:00:56.990Z,29.10
2019-02-05T20:03:25.591Z,29.80
2019-02-05T20:05:54.209Z,30.10
2019-02-05T20:08:22.965Z,30.30
2019-02-05T20:10:51.635Z,30.30
2019-02-05T20:13:21.908Z,31.50
2019-02-05T20:15:51.293Z,31.40
2019-02-05T20:18:20.036Z,31.80
2019-02-05T20:23:18.367Z,32.80
2019-02-05T20:25:47.388Z,32.00
2019-02-05T20:28:15.988Z,31.80
2019-02-05T20:30:44.641Z,31.20
2019-02-05T20:33:13.737Z,31.30
2019-02-05T20:35:42.404Z,31.60
2019-02-05T20:38:11.398Z,31.20
2019-02-05T20:40:40.553Z,30.20
2019-02-05T20:43:11.292Z,31.60
2019-02-05T20:45:42.723Z,32.80
2019-02-05T20:48:11.371Z,31.10
2019-02-05T20:50:40.284Z,31.60
2019-02-05T20:53:13.871Z,31.40
2019-02-05T20:55:40.119Z,30.90
2019-02-05T20:58:08.810Z,29.60
2019-02-05T21:00:37.466Z,29.00
2019-02-05T21:03:06.730Z,29.20
2019-02-05T21:05:35.425Z,30.30
2019-02-05T21:08:04.068Z,29.90
2019-02-05T21:10:33.030Z,30.00
2019-02-05T21:13:01.794Z,30.10
2019-02-05T21:15:30.412Z,29.90
2019-02-05T21:17:59.060Z,30.90
2019-02-05T21:20:33.171Z,31.30
2019-02-05T21:22:59.539Z,31.80
2019-02-05T21:25:28.189Z,32.20
2019-02-05T21:27:58.295Z,31.20
2019-02-05T21:30:27.526Z,30.80
2019-02-05T21:32:56.114Z,31.50
2019-02-05T21:35:25.176Z,32.50
2019-02-05T21:37:53.814Z,33.00
2019-02-05T21:40:24.351Z,32.40
2019-02-05T21:42:52.895Z,32.80
2019-02-05T21:45:26.435Z,33.20
2019-02-05T21:47:55.020Z,33.90
2019-02-05T21:50:23.743Z,33.20
2019-02-05T21:52:52.518Z,34.40
2019-02-05T21:55:23.609Z,34.10
2019-02-05T21:57:52.271Z,34.80
2019-02-05T22:00:33.922Z,34.00
2019-02-05T22:03:02.578Z,33.90
2019-02-05T22:05:32.736Z,33.80
2019-02-05T22:08:01.758Z,33.60
2019-02-05T22:10:30.469Z,33.90
2019-02-05T22:12:59.037Z,34.00
2019-02-05T22:15:28.062Z,33.80
2019-02-05T22:17:56.715Z,33.10
2019-02-05T22:20:28.958Z,32.80
2019-02-05T22:22:57.591Z,33.30
2019-02-05T22:25:33.385Z,32.50
2019-02-05T22:28:01.982Z,30.00
2019-02-05T22:30:33.580Z,30.00
2019-02-05T22:33:02.270Z,30.80
2019-02-05T22:35:30.929Z,30.10
2019-02-05T22:37:59.488Z,29.60
2019-02-05T22:40:28.472Z,29.40
2019-02-05T22:42:56.961Z,30.20
2019-02-05T22:45:30.321Z,29.60
2019-02-05T22:47:59.388Z,27.30
2019-02-05T22:50:30.519Z,27.30
2019-02-05T22:52:59.188Z,27.90
2019-02-05T22:55:28.348Z,28.50
2019-02-05T22:57:56.997Z,28.00
2019-02-05T23:00:56.194Z,27.70
2019-02-05T23:03:30.921Z,28.00
2019-02-05T23:06:24.141Z,28.70
2019-02-05T23:08:53.484Z,28.90
2019-02-05T23:11:28.456Z,27.40
2019-02-05T23:13:57.029Z,28.00
2019-02-05T23:16:25.678Z,28.30
2019-02-05T23:18:54.363Z,28.60
2019-02-05T23:21:23.350Z,30.00
2019-02-05T23:23:51.872Z,30.00
2019-02-05T23:26:20.551Z,30.80
2019-02-05T23:28:49.115Z,30.30
2019-02-05T23:31:17.756Z,31.40
2019-02-05T23:33:46.325Z,30.80
2019-02-05T23:36:14.935Z,30.80
2019-02-05T23:38:43.574Z,31.40
2019-02-05T23:41:12.494Z,31.80
2019-02-05T23:43:41.416Z,32.20
2019-02-05T23:46:09.961Z,32.50
2019-02-05T23:48:38.592Z,30.90
2019-02-05T23:51:07.177Z,31.90
2019-02-05T23:53:36.192Z,33.50
2019-02-05T23:56:04.876Z,33.50
2019-02-05T23:58:34.332Z,33.30
